createdAt,value
2023-05-24T00:00:19.501Z,37.84
2023-05-24T00:02:46.143Z,37.40
2023-05-24T00:05:14.760Z,37.81
2023-05-24T00:07:41.330Z,37.65
2023-05-24T00:10:08.633Z,37.53
2023-05-24T00:12:35.412Z,37.51
2023-05-24T00:15:02.033Z,37.54
2023-05-24T00:17:30.340Z,37.64
2023-05-24T00:19:57.108Z,37.59
2023-05-24T00:22:23.666Z,37.31
2023-05-24T00:24:50.587Z,37.75
2023-05-24T00:27:17.126Z,37.70
2023-05-24T00:29:43.676Z,37.48
2023-05-24T00:32:10.315Z,37.70
2023-05-24T00:34:37.052Z,38.00
2023-05-24T00:37:04.286Z,37.41
2023-05-24T00:39:30.871Z,37.60
2023-05-24T00:41:57.391Z,37.43
2023-05-24T00:44:23.937Z,37.72
2023-05-24T00:46:50.616Z,37.56
2023-05-24T00:49:17.533Z,37.51
2023-05-24T00:51:45.437Z,37.48
2023-05-24T00:54:15.068Z,37.43
2023-05-24T00:56:43.249Z,37.39
2023-05-24T00:59:10.089Z,37.39
2023-05-24T01:01:38.372Z,37.45
2023-05-24T01:04:05.709Z,37.39
2023-05-24T01:06:46.055Z,37.37
2023-05-24T01:09:28.875Z,37.34
2023-05-24T01:11:59.042Z,37.44
2023-05-24T01:14:44.332Z,37.46
2023-05-24T01:17:24.115Z,37.44
2023-05-24T01:19:56.432Z,37.51
2023-05-24T01:23:08.918Z,37.57
2023-05-24T01:25:41.868Z,37.63
2023-05-24T01:28:11.407Z,37.35
2023-05-24T01:30:41.650Z,37.61
2023-05-24T01:33:08.890Z,37.23
2023-05-24T01:35:40.270Z,37.40
2023-05-24T01:38:07.590Z,37.38
2023-05-24T01:40:34.701Z,37.26
2023-05-24T01:43:22.477Z,37.31
2023-05-24T01:46:02.738Z,37.48
2023-05-24T01:48:45.959Z,37.24
2023-05-24T01:51:18.533Z,37.55
2023-05-24T01:53:47.546Z,37.35
2023-05-24T01:56:16.108Z,37.33
2023-05-24T01:58:45.402Z,37.24
2023-05-24T02:01:13.357Z,37.43
2023-05-24T02:03:40.585Z,37.45
2023-05-24T02:06:08.207Z,37.30
2023-05-24T02:08:34.857Z,37.31
2023-05-24T02:11:01.591Z,37.36
2023-05-24T02:13:28.227Z,37.16
2023-05-24T02:15:54.882Z,37.29
2023-05-24T02:18:22.595Z,37.18
2023-05-24T02:20:49.214Z,37.09
2023-05-24T02:23:16.159Z,37.42
2023-05-24T02:25:42.846Z,37.00
2023-05-24T02:28:09.528Z,37.44
2023-05-24T02:30:36.254Z,37.16
2023-05-24T02:33:02.904Z,37.39
2023-05-24T02:35:29.720Z,37.20
2023-05-24T02:37:58.607Z,37.25
2023-05-24T02:40:25.419Z,37.33
2023-05-24T02:42:52.359Z,37.20
2023-05-24T02:45:19.034Z,37.21
2023-05-24T02:47:46.776Z,36.94
2023-05-24T02:50:13.381Z,37.22
2023-05-24T02:52:39.984Z,37.28
2023-05-24T02:55:07.477Z,37.21
2023-05-24T02:57:35.071Z,37.65
2023-05-24T03:00:01.935Z,37.06
2023-05-24T03:02:29.841Z,37.17
2023-05-24T03:04:56.955Z,36.87
2023-05-24T03:07:23.527Z,37.16
2023-05-24T03:09:50.099Z,36.85
2023-05-24T03:12:16.631Z,37.08
2023-05-24T03:14:43.281Z,37.12
2023-05-24T03:17:09.825Z,37.17
2023-05-24T03:19:37.425Z,37.40
2023-05-24T03:22:04.042Z,37.06
2023-05-24T03:24:30.559Z,37.15
2023-05-24T03:26:57.124Z,37.45
2023-05-24T03:29:23.804Z,37.01
2023-05-24T03:31:52.346Z,37.06
2023-05-24T03:34:18.897Z,36.95
2023-05-24T03:36:45.414Z,36.81
2023-05-24T03:39:12.289Z,37.08
2023-05-24T03:42:14.180Z,37.06
2023-05-24T03:44:40.989Z,37.19
2023-05-24T03:47:07.590Z,36.84
2023-05-24T03:49:34.189Z,37.07
2023-05-24T03:52:01.493Z,37.17
2023-05-24T03:54:27.976Z,37.02
2023-05-24T03:56:54.649Z,36.77
2023-05-24T03:59:22.482Z,36.94
2023-05-24T04:01:49.086Z,36.94
2023-05-24T04:04:15.791Z,36.76
2023-05-24T04:06:42.326Z,36.78
2023-05-24T04:09:10.047Z,36.98
2023-05-24T04:11:36.693Z,37.31
2023-05-24T04:14:03.691Z,36.90
2023-05-24T04:16:34.163Z,37.31
2023-05-24T04:19:04.317Z,37.14
2023-05-24T04:21:32.169Z,37.09
2023-05-24T04:24:01.495Z,37.09
2023-05-24T04:26:28.301Z,37.04
2023-05-24T04:28:54.831Z,36.86
2023-05-24T04:31:21.657Z,36.85
2023-05-24T04:33:48.533Z,37.00
2023-05-24T04:36:16.203Z,36.91
2023-05-24T04:38:42.726Z,36.96
2023-05-24T04:41:10.267Z,36.71
2023-05-24T04:43:36.882Z,36.94
2023-05-24T04:46:03.531Z,36.98
2023-05-24T04:48:30.220Z,36.85
2023-05-24T04:51:00.833Z,36.68
2023-05-24T04:53:27.573Z,36.84
2023-05-24T04:55:54.115Z,37.02
2023-05-24T04:58:20.647Z,36.78
2023-05-24T05:00:47.203Z,36.90
2023-05-24T05:03:13.951Z,36.83
2023-05-24T05:05:40.645Z,37.05
2023-05-24T05:08:07.169Z,36.95
2023-05-24T05:10:33.702Z,36.74
2023-05-24T05:13:00.311Z,36.67
2023-05-24T05:15:26.862Z,36.86
2023-05-24T05:17:53.429Z,36.79
2023-05-24T05:20:20.061Z,36.79
2023-05-24T05:22:47.788Z,37.03
2023-05-24T05:25:14.399Z,36.66
2023-05-24T05:27:41.220Z,36.75
2023-05-24T05:30:08.746Z,36.75
2023-05-24T05:32:36.461Z,36.62
2023-05-24T05:35:03.460Z,36.80
2023-05-24T05:37:31.142Z,36.84
2023-05-24T05:39:57.701Z,36.80
2023-05-24T05:42:24.264Z,36.80
2023-05-24T05:44:50.782Z,36.74
2023-05-24T05:47:17.280Z,36.71
2023-05-24T05:49:43.786Z,36.65
2023-05-24T05:52:10.494Z,36.71
2023-05-24T05:54:37.047Z,36.87
2023-05-24T05:57:03.775Z,36.86
2023-05-24T05:59:30.334Z,36.67
2023-05-24T06:01:56.980Z,36.81
2023-05-24T06:04:23.531Z,36.89
2023-05-24T06:06:50.128Z,36.81
2023-05-24T06:09:17.091Z,36.68
2023-05-24T06:11:45.030Z,36.42
2023-05-24T06:14:13.327Z,36.60
2023-05-24T06:17:02.062Z,36.71
2023-05-24T06:19:36.664Z,36.80
2023-05-24T06:22:03.436Z,36.91
2023-05-24T06:24:29.938Z,36.53
2023-05-24T06:26:56.697Z,36.70
2023-05-24T06:29:25.144Z,36.41
2023-05-24T06:31:51.789Z,36.54
2023-05-24T06:34:21.210Z,36.82
2023-05-24T06:36:48.744Z,36.64
2023-05-24T06:39:16.468Z,36.48
2023-05-24T06:41:44.427Z,36.89
2023-05-24T06:44:11.153Z,36.85
2023-05-24T06:46:38.096Z,36.71
2023-05-24T06:49:04.787Z,36.84
2023-05-24T06:51:33.420Z,36.72
2023-05-24T06:54:00.058Z,36.53
2023-05-24T06:56:26.977Z,36.77
2023-05-24T06:58:53.534Z,36.60
2023-05-24T07:01:20.148Z,36.63
2023-05-24T07:03:47.061Z,36.84
2023-05-24T07:06:14.386Z,36.82
2023-05-24T07:08:44.415Z,36.86
2023-05-24T07:11:11.057Z,36.63
2023-05-24T07:13:37.665Z,36.50
2023-05-24T07:16:04.428Z,36.54
2023-05-24T07:18:31.547Z,36.59
2023-05-24T07:20:58.410Z,36.46
2023-05-24T07:23:24.939Z,36.57
2023-05-24T07:25:51.443Z,36.51
2023-05-24T07:28:20.297Z,36.60
2023-05-24T07:30:47.230Z,36.65
2023-05-24T07:33:14.209Z,36.65
2023-05-24T07:35:41.828Z,36.41
2023-05-24T07:38:08.776Z,36.80
2023-05-24T07:40:35.434Z,36.67
2023-05-24T07:43:03.779Z,36.59
2023-05-24T07:45:31.313Z,36.46
2023-05-24T07:47:57.887Z,36.51
2023-05-24T07:50:25.015Z,36.64
2023-05-24T07:52:51.609Z,36.54
2023-05-24T07:55:18.272Z,36.69
2023-05-24T07:57:44.819Z,36.63
2023-05-24T08:00:14.644Z,36.74
2023-05-24T08:02:42.653Z,36.58
2023-05-24T08:05:11.661Z,36.65
2023-05-24T08:07:38.895Z,36.90
2023-05-24T08:10:06.201Z,36.70
2023-05-24T08:12:32.940Z,36.65
2023-05-24T08:14:59.506Z,36.54
2023-05-24T08:17:26.999Z,36.54
2023-05-24T08:19:53.558Z,36.53
2023-05-24T08:22:20.159Z,36.72
2023-05-24T08:24:46.715Z,36.51
2023-05-24T08:27:14.017Z,36.79
2023-05-24T08:29:40.929Z,36.67
2023-05-24T08:32:09.694Z,36.53
2023-05-24T08:34:37.690Z,36.57
2023-05-24T08:37:05.036Z,36.34
2023-05-24T08:39:31.677Z,36.63
2023-05-24T08:42:09.509Z,36.47
2023-05-24T08:44:43.615Z,36.36
2023-05-24T08:47:10.631Z,36.56
2023-05-24T08:49:38.200Z,36.42
2023-05-24T08:52:07.663Z,36.63
2023-05-24T08:54:38.567Z,36.41
2023-05-24T08:57:06.712Z,36.41
2023-05-24T08:59:33.516Z,36.63
2023-05-24T09:02:01.447Z,36.67
2023-05-24T09:04:29.135Z,36.59
2023-05-24T09:06:56.790Z,36.38
2023-05-24T09:09:27.313Z,36.45
2023-05-24T09:11:59.127Z,36.56
2023-05-24T09:14:25.872Z,36.31
2023-05-24T09:16:52.502Z,36.38
2023-05-24T09:19:19.830Z,36.25
2023-05-24T09:21:47.491Z,36.29
2023-05-24T09:24:14.132Z,36.34
2023-05-24T09:26:40.937Z,36.43
2023-05-24T09:29:08.149Z,36.39
2023-05-24T09:31:35.977Z,36.34
2023-05-24T09:34:03.144Z,36.37
2023-05-24T09:36:33.162Z,36.57
2023-05-24T09:39:10.340Z,36.55
2023-05-24T09:41:37.923Z,36.47
2023-05-24T09:44:05.917Z,36.49
2023-05-24T09:46:38.775Z,36.42
2023-05-24T09:49:06.843Z,36.52
2023-05-24T09:51:38.220Z,36.66
2023-05-24T09:54:05.735Z,36.29
2023-05-24T09:56:33.849Z,36.34
2023-05-24T09:59:06.100Z,36.45
2023-05-24T10:01:34.007Z,36.28
2023-05-24T10:04:03.685Z,36.28
2023-05-24T10:06:37.011Z,36.31
2023-05-24T10:09:09.002Z,36.31
2023-05-24T10:11:37.334Z,36.47
2023-05-24T10:14:09.579Z,36.43
2023-05-24T10:16:38.370Z,36.41
2023-05-24T10:19:06.969Z,36.73
2023-05-24T10:21:40.752Z,36.61
2023-05-24T10:24:11.095Z,36.28
2023-05-24T10:26:39.402Z,36.40
2023-05-24T10:29:10.704Z,36.33
2023-05-24T10:31:41.491Z,36.43
2023-05-24T10:34:09.390Z,36.43
2023-05-24T10:36:37.829Z,36.65
2023-05-24T10:39:05.049Z,36.54
2023-05-24T10:41:40.129Z,36.36
2023-05-24T10:44:12.183Z,36.28
2023-05-24T10:47:17.033Z,36.37
2023-05-24T10:49:57.788Z,36.14
2023-05-24T10:52:35.207Z,36.41
2023-05-24T10:55:07.989Z,36.41
2023-05-24T10:57:35.413Z,36.53
2023-05-24T11:03:10.816Z,36.35
2023-05-24T11:05:46.803Z,36.35
2023-05-24T11:08:13.699Z,36.42
2023-05-24T11:10:43.798Z,36.22
2023-05-24T11:13:10.910Z,36.42
2023-05-24T11:15:37.503Z,36.46
2023-05-24T11:18:09.200Z,36.21
2023-05-24T11:20:36.460Z,36.49
2023-05-24T11:23:04.287Z,36.22
2023-05-24T11:25:32.637Z,36.39
2023-05-24T11:27:59.624Z,36.33
2023-05-24T11:30:26.508Z,36.37
2023-05-24T11:32:53.165Z,36.29
2023-05-24T11:35:20.146Z,36.37
2023-05-24T11:37:47.163Z,36.01
2023-05-24T11:40:15.227Z,36.34
2023-05-24T11:42:41.843Z,36.39
2023-05-24T11:45:10.105Z,36.32
2023-05-24T11:47:40.350Z,36.01
2023-05-24T11:50:07.760Z,36.15
2023-05-24T11:52:40.036Z,36.24
2023-05-24T11:55:07.864Z,36.43
2023-05-24T11:57:47.603Z,36.17
2023-05-24T12:00:17.313Z,36.27
2023-05-24T12:02:43.983Z,36.13
2023-05-24T12:05:11.924Z,36.40
2023-05-24T12:07:38.586Z,36.71
2023-05-24T12:10:06.887Z,36.31
2023-05-24T12:12:42.467Z,36.16
2023-05-24T12:15:12.839Z,36.32
2023-05-24T12:17:39.636Z,36.20
2023-05-24T12:20:06.892Z,36.13
2023-05-24T12:22:33.569Z,36.38
2023-05-24T12:25:00.127Z,36.25
2023-05-24T12:27:31.439Z,36.36
2023-05-24T12:30:06.339Z,36.51
2023-05-24T12:32:32.904Z,36.22
2023-05-24T12:34:59.474Z,36.36
2023-05-24T12:37:26.135Z,36.50
2023-05-24T12:39:54.684Z,36.23
2023-05-24T12:42:23.953Z,36.43
2023-05-24T12:44:53.100Z,36.11
2023-05-24T12:47:19.743Z,36.47
2023-05-24T12:49:47.046Z,36.16
2023-05-24T12:52:14.820Z,36.40
2023-05-24T12:54:41.588Z,36.62
2023-05-24T12:57:08.221Z,36.29
2023-05-24T12:59:35.089Z,36.11
2023-05-24T13:02:02.000Z,36.41
2023-05-24T13:04:30.600Z,36.35
2023-05-24T13:06:57.316Z,36.47
2023-05-24T13:09:25.490Z,36.30
2023-05-24T13:11:52.546Z,36.66
2023-05-24T13:14:19.929Z,36.22
2023-05-24T13:16:47.026Z,36.16
2023-05-24T13:19:14.097Z,36.15
2023-05-24T13:21:40.839Z,36.35
2023-05-24T13:24:07.682Z,36.15
2023-05-24T13:26:38.185Z,36.81
2023-05-24T13:31:37.383Z,36.14
2023-05-24T13:34:04.359Z,36.23
2023-05-24T13:36:30.988Z,35.80
2023-05-24T13:39:13.532Z,36.25
2023-05-24T13:41:43.042Z,36.20
2023-05-24T13:44:10.532Z,36.05
2023-05-24T13:46:38.419Z,35.95
2023-05-24T13:49:05.796Z,36.00
2023-05-24T13:51:32.884Z,35.76
2023-05-24T13:53:59.869Z,35.89
2023-05-24T13:56:32.481Z,35.95
2023-05-24T13:58:59.638Z,35.99
2023-05-24T14:01:26.902Z,35.61
2023-05-24T14:03:53.527Z,35.85
2023-05-24T14:06:21.796Z,35.73
2023-05-24T14:08:48.975Z,35.67
2023-05-24T14:11:16.106Z,35.71
2023-05-24T14:14:35.986Z,35.66
2023-05-24T14:16:30.352Z,35.86
2023-05-24T14:18:57.456Z,35.62
2023-05-24T14:21:25.852Z,35.73
2023-05-24T14:23:52.394Z,35.72
2023-05-24T14:26:19.943Z,35.67
2023-05-24T14:28:46.660Z,35.90
2023-05-24T14:31:13.302Z,35.44
2023-05-24T14:33:39.970Z,35.49
2023-05-24T14:36:06.825Z,35.62
2023-05-24T14:38:33.424Z,35.86
2023-05-24T14:41:01.532Z,35.59
2023-05-24T14:43:28.388Z,35.57
2023-05-24T14:45:55.045Z,35.74
2023-05-24T14:48:21.642Z,35.70
2023-05-24T14:50:48.302Z,35.54
2023-05-24T14:53:15.103Z,35.83
2023-05-24T14:55:43.752Z,35.42
2023-05-24T14:58:12.004Z,35.63
2023-05-24T15:00:41.472Z,35.54
2023-05-24T15:03:09.018Z,35.40
2023-05-24T15:05:36.395Z,35.66
2023-05-24T15:08:03.482Z,35.63
2023-05-24T15:10:30.147Z,35.58
2023-05-24T15:12:56.830Z,35.52
2023-05-24T15:15:23.427Z,35.49
2023-05-24T15:17:50.084Z,35.31
2023-05-24T15:20:16.851Z,35.42
2023-05-24T15:22:43.573Z,35.29
2023-05-24T15:25:11.329Z,35.30
2023-05-24T15:27:37.946Z,35.40
2023-05-24T15:30:06.974Z,35.28
2023-05-24T15:32:33.495Z,35.05
2023-05-24T15:35:02.933Z,35.39
2023-05-24T15:37:29.573Z,35.25
2023-05-24T15:39:56.117Z,35.12
2023-05-24T15:42:24.613Z,35.37
2023-05-24T15:44:51.697Z,35.45
2023-05-24T15:47:20.494Z,35.17
2023-05-24T15:49:49.631Z,35.26
2023-05-24T15:52:16.220Z,35.12
2023-05-24T15:54:42.762Z,35.34
2023-05-24T15:57:09.335Z,35.37
2023-05-24T15:59:38.448Z,35.17
2023-05-24T16:02:08.444Z,35.38
2023-05-24T16:04:35.107Z,35.34
2023-05-24T16:07:01.712Z,35.21
2023-05-24T16:09:28.319Z,35.39
2023-05-24T16:11:54.982Z,35.25
2023-05-24T16:14:21.541Z,34.97
2023-05-24T16:16:48.279Z,35.26
2023-05-24T16:19:14.916Z,35.37
2023-05-24T16:21:41.455Z,34.90
2023-05-24T16:24:08.138Z,35.29
2023-05-24T16:26:36.722Z,35.30
2023-05-24T16:29:05.598Z,35.39
2023-05-24T16:31:32.234Z,35.21
2023-05-24T16:33:58.987Z,35.43
2023-05-24T16:36:26.871Z,35.55
2023-05-24T16:38:53.578Z,35.55
2023-05-24T16:41:20.082Z,35.06
2023-05-24T16:43:48.389Z,35.44
2023-05-24T16:46:15.103Z,35.24
2023-05-24T16:48:41.677Z,35.17
2023-05-24T16:51:08.284Z,35.27
2023-05-24T16:53:34.894Z,35.13
2023-05-24T16:56:01.426Z,35.04
2023-05-24T16:58:38.053Z,35.17
2023-05-24T17:01:04.712Z,35.34
2023-05-24T17:03:32.728Z,35.24
2023-05-24T17:06:05.338Z,35.31
2023-05-24T17:08:36.314Z,35.43
2023-05-24T17:11:03.893Z,35.37
2023-05-24T17:13:33.338Z,35.34
2023-05-24T17:16:00.516Z,35.12
2023-05-24T17:18:27.899Z,35.20
2023-05-24T17:20:56.355Z,35.31
2023-05-24T17:23:25.084Z,35.26
2023-05-24T17:25:52.594Z,35.17
2023-05-24T17:28:19.352Z,35.07
2023-05-24T17:30:46.060Z,34.87
2023-05-24T17:33:12.662Z,34.59
2023-05-24T17:35:40.046Z,34.37
2023-05-24T17:38:07.805Z,34.18
2023-05-24T17:40:34.369Z,33.93
2023-05-24T17:43:00.924Z,33.75
2023-05-24T17:45:27.470Z,33.43
2023-05-24T17:47:54.076Z,33.43
2023-05-24T17:50:21.164Z,33.14
2023-05-24T17:52:47.730Z,33.08
2023-05-24T17:55:14.344Z,32.93
2023-05-24T17:57:40.910Z,33.15
2023-05-24T18:00:07.908Z,33.14
2023-05-24T18:02:34.462Z,33.24
2023-05-24T18:05:01.069Z,33.21
2023-05-24T18:07:28.392Z,33.43
2023-05-24T18:09:55.117Z,33.35
2023-05-24T18:12:21.886Z,33.46
2023-05-24T18:14:48.748Z,33.64
2023-05-24T18:17:15.394Z,33.59
2023-05-24T18:19:42.057Z,33.73
2023-05-24T18:22:08.581Z,33.70
2023-05-24T18:24:35.217Z,33.57
2023-05-24T18:27:02.547Z,33.83
2023-05-24T18:29:29.128Z,33.88
2023-05-24T18:31:55.962Z,34.00
2023-05-24T18:34:22.598Z,33.89
2023-05-24T18:36:49.805Z,34.27
2023-05-24T18:39:16.475Z,34.18
2023-05-24T18:41:42.984Z,34.16
2023-05-24T18:44:09.511Z,34.53
2023-05-24T18:46:36.245Z,34.05
2023-05-24T18:49:03.260Z,34.43
2023-05-24T18:51:29.867Z,34.38
2023-05-24T18:53:56.766Z,34.40
2023-05-24T18:56:23.327Z,34.43
2023-05-24T18:58:51.114Z,34.66
2023-05-24T19:01:18.891Z,34.90
2023-05-24T19:03:45.559Z,35.08
2023-05-24T19:06:14.457Z,34.60
2023-05-24T19:08:41.012Z,34.83
2023-05-24T19:11:07.708Z,34.83
2023-05-24T19:13:34.243Z,35.09
2023-05-24T19:16:01.478Z,34.99
2023-05-24T19:18:28.155Z,35.08
2023-05-24T19:20:54.624Z,35.30
2023-05-24T19:23:21.379Z,35.30
2023-05-24T19:25:50.185Z,35.17
2023-05-24T19:28:17.101Z,35.33
2023-05-24T19:30:43.749Z,35.44
2023-05-24T19:33:10.366Z,35.19
2023-05-24T19:35:36.923Z,35.44
2023-05-24T19:38:03.804Z,35.57
2023-05-24T19:40:30.412Z,35.34
2023-05-24T19:42:56.963Z,35.40
2023-05-24T19:45:23.691Z,35.54
2023-05-24T19:47:50.421Z,35.20
2023-05-24T19:50:18.278Z,35.51
2023-05-24T19:52:44.823Z,35.72
2023-05-24T19:55:11.428Z,35.61
2023-05-24T19:57:37.935Z,35.83
2023-05-24T20:00:05.088Z,35.85
2023-05-24T20:02:37.851Z,35.74
2023-05-24T20:05:04.801Z,35.86
2023-05-24T20:07:31.607Z,35.96
2023-05-24T20:09:58.160Z,36.05
2023-05-24T20:12:24.771Z,35.83
2023-05-24T20:14:52.333Z,35.90
2023-05-24T20:17:18.854Z,36.01
2023-05-24T20:19:45.375Z,36.03
2023-05-24T20:22:12.474Z,36.02
2023-05-24T20:24:39.070Z,35.90
2023-05-24T20:27:06.325Z,36.09
2023-05-24T20:29:32.933Z,36.09
2023-05-24T20:31:59.655Z,36.08
2023-05-24T20:34:26.317Z,35.93
2023-05-24T20:36:53.031Z,35.99
2023-05-24T20:39:19.594Z,36.05
2023-05-24T20:41:46.095Z,36.35
2023-05-24T20:44:12.614Z,36.21
2023-05-24T20:46:39.232Z,36.42
2023-05-24T20:49:05.842Z,36.55
2023-05-24T20:51:33.089Z,36.22
2023-05-24T20:53:59.827Z,36.24
2023-05-24T20:56:26.356Z,36.26
2023-05-24T20:58:54.204Z,36.00
2023-05-24T21:01:21.182Z,36.32
2023-05-24T21:03:47.856Z,36.50
2023-05-24T21:06:14.529Z,36.47
2023-05-24T21:08:42.749Z,36.60
2023-05-24T21:11:09.309Z,36.56
2023-05-24T21:13:35.825Z,36.72
2023-05-24T21:16:03.093Z,36.45
2023-05-24T21:18:29.621Z,36.45
2023-05-24T21:20:56.201Z,36.66
2023-05-24T21:23:22.873Z,36.61
2023-05-24T21:25:49.475Z,36.39
2023-05-24T21:28:16.109Z,36.53
2023-05-24T21:30:42.706Z,36.44
2023-05-24T21:33:09.337Z,36.40
2023-05-24T21:35:35.890Z,36.57
2023-05-24T21:38:02.404Z,36.49
2023-05-24T21:40:28.970Z,36.64
2023-05-24T21:42:55.521Z,36.30
2023-05-24T21:45:22.032Z,36.78
2023-05-24T21:47:48.600Z,36.61
2023-05-24T21:50:15.312Z,36.79
2023-05-24T21:52:41.902Z,36.96
2023-05-24T21:55:08.586Z,36.79
2023-05-24T21:57:35.114Z,36.61
2023-05-24T22:00:02.229Z,36.78
2023-05-24T22:02:32.111Z,36.76
2023-05-24T22:04:58.770Z,36.67
2023-05-24T22:07:25.752Z,36.67
2023-05-24T22:09:52.231Z,36.76
2023-05-24T22:12:18.779Z,36.90
2023-05-24T22:14:45.338Z,36.78
2023-05-24T22:17:12.048Z,36.91
2023-05-24T22:19:41.326Z,36.95
2023-05-24T22:22:08.838Z,36.89
2023-05-24T22:24:35.347Z,36.98
2023-05-24T22:27:02.432Z,37.04
2023-05-24T22:29:29.081Z,36.72
2023-05-24T22:31:55.723Z,36.73
2023-05-24T22:34:27.339Z,36.90
2023-05-24T22:36:54.444Z,36.78
2023-05-24T22:39:21.570Z,36.98
2023-05-24T22:41:48.171Z,36.97
2023-05-24T22:44:14.895Z,37.04
2023-05-24T22:46:41.543Z,36.76
2023-05-24T22:49:08.185Z,37.04
2023-05-24T22:51:34.717Z,37.23
2023-05-24T22:54:01.221Z,36.88
2023-05-24T22:56:28.307Z,36.93
2023-05-24T22:58:54.885Z,37.08
2023-05-24T23:01:21.484Z,37.16
2023-05-24T23:03:48.110Z,37.05
2023-05-24T23:06:16.109Z,37.03
2023-05-24T23:08:43.231Z,36.79
2023-05-24T23:11:13.193Z,36.84
2023-05-24T23:13:42.469Z,36.91
2023-05-24T23:16:09.129Z,37.10
2023-05-24T23:18:37.761Z,37.28
2023-05-24T23:21:04.681Z,36.83
2023-05-24T23:23:31.261Z,37.24
2023-05-24T23:25:57.899Z,36.96
2023-05-24T23:28:24.505Z,37.26
2023-05-24T23:30:51.130Z,36.90
2023-05-24T23:33:17.698Z,37.28
2023-05-24T23:35:44.561Z,36.99
2023-05-24T23:38:11.209Z,36.87
2023-05-24T23:40:37.740Z,37.25
2023-05-24T23:43:04.351Z,36.92
2023-05-24T23:45:31.203Z,37.06
2023-05-24T23:47:58.651Z,37.08
2023-05-24T23:50:27.334Z,37.44
2023-05-24T23:52:54.759Z,37.09
2023-05-24T23:55:22.502Z,37.08
2023-05-24T23:57:49.402Z,37.22
